Main page
METAR-TAF:

METAR-TAF

Airports :

Larnaca International Airport

Larnaca, Cyprus

latitude: 34-53N, longitude: 033-38E, elevation: 2 m

Current weather observation

The report was made 32 minutes ago, at 11:00 UTC
Wind 14 kt from the South
Temperature 35°C
Humidity 30%
Pressure 1005 hPa
Visibility 10 km or more
Few clouds at a height of 3000 ft

METAR: LCLK 151100Z 19014KT 9999 FEW030 35/15 Q1005 NOSIG

Time: 14:32 (11:32 UTC)

Forecast

The report was made 6 hours and 2 minutes ago, at 05:30 UTC
Forecast valid from 15 at 06 UTC to 16 at 06 UTC
Wind 9 kt from the Southeast
Visibility 10 km or more
no clouds below 1500 m and no cumulonimbus
Becoming
from 15 at 09 UTC to 15 at 12 UTC
Wind 19 kt from the Southwest
Becoming
from 15 at 18 UTC to 15 at 21 UTC
Wind 9 kt from the North/Northwest

TAF: LCLK 150530Z 1506/1606 14009KT CAVOK BECMG 1509/1512 22019KT BECMG 1518/1521 33009KT

Weather observations and forecasts of more than 4000 airports (METAR and TAF reports).

The available stations are represented by yellow and red dots on the map.

Hover mouse over dot to see the name of the station.

Then click to see weather observations and forecasts.

To change the map : click on the green buttons with a black cross to zoom in, on the green button with a dash to zoom out, or on the green arrows for adjacent maps.


METAR-TAF: